createdAt,value
2023-02-22T00:01:37.213Z,959.87
2023-02-22T00:02:37.215Z,959.88
2023-02-22T00:03:37.244Z,959.86
2023-02-22T00:04:37.218Z,959.82
2023-02-22T00:05:37.197Z,959.88
2023-02-22T00:06:37.135Z,959.86
2023-02-22T00:07:37.219Z,959.85
2023-02-22T00:09:37.143Z,959.86
2023-02-22T00:10:37.141Z,959.85
2023-02-22T00:11:37.287Z,959.81
2023-02-22T00:12:37.270Z,959.8
2023-02-22T00:13:37.228Z,959.82
2023-02-22T00:14:37.162Z,959.79
2023-02-22T00:16:37.327Z,959.77
2023-02-22T00:19:37.310Z,959.8
2023-02-22T00:20:37.349Z,959.81
2023-02-22T00:24:37.427Z,959.76
2023-02-22T00:25:37.278Z,959.81
2023-02-22T00:29:37.314Z,959.84
2023-02-22T00:30:37.345Z,959.79
2023-02-22T00:31:37.267Z,959.8
2023-02-22T00:32:38.211Z,959.82
2023-02-22T00:33:37.207Z,959.8
2023-02-22T00:34:37.377Z,959.85
2023-02-22T00:35:37.327Z,959.8
2023-02-22T00:36:37.306Z,959.75
2023-02-22T00:37:37.290Z,959.79
2023-02-22T00:38:38.213Z,959.81
2023-02-22T00:39:37.309Z,959.77
2023-02-22T00:40:37.209Z,959.76
2023-02-22T00:41:37.411Z,959.79
2023-02-22T00:42:37.314Z,959.76
2023-02-22T00:43:38.253Z,959.75
2023-02-22T00:44:37.370Z,959.76
2023-02-22T00:45:37.416Z,959.75
2023-02-22T00:47:37.253Z,959.8
2023-02-22T00:48:37.330Z,959.77
2023-02-22T00:49:37.381Z,959.79
2023-02-22T00:50:37.237Z,959.81
2023-02-22T00:51:37.220Z,959.78
2023-02-22T00:52:37.287Z,959.75
2023-02-22T00:53:37.369Z,959.79
2023-02-22T00:54:37.264Z,959.8
2023-02-22T00:55:37.303Z,959.77
2023-02-22T00:56:37.379Z,959.74
2023-02-22T00:57:37.279Z,959.76
2023-02-22T00:59:37.525Z,959.74
2023-02-22T01:00:37.342Z,959.73
2023-02-22T01:01:37.416Z,959.72
2023-02-22T01:02:37.395Z,959.74
2023-02-22T01:03:37.278Z,959.75
2023-02-22T01:04:37.281Z,959.72
2023-02-22T01:05:37.367Z,959.69
2023-02-22T01:06:37.332Z,959.68
2023-02-22T01:07:37.325Z,959.7
2023-02-22T01:08:37.270Z,959.72
2023-02-22T01:09:37.261Z,959.65
2023-02-22T01:10:37.421Z,959.67
2023-02-22T01:11:37.286Z,959.64
2023-02-22T01:12:37.361Z,959.65
2023-02-22T01:13:37.273Z,959.63
2023-02-22T01:14:37.279Z,959.66
2023-02-22T01:15:37.438Z,959.63
2023-02-22T01:16:38.416Z,959.65
2023-02-22T01:17:37.358Z,959.63
2023-02-22T01:18:37.286Z,959.61
2023-02-22T01:19:37.410Z,959.58
2023-02-22T01:20:37.288Z,959.61
2023-02-22T01:21:38.418Z,959.56
2023-02-22T01:22:37.338Z,959.58
2023-02-22T01:23:37.425Z,959.56
2023-02-22T01:24:38.446Z,959.59
2023-02-22T01:25:37.419Z,959.56
2023-02-22T01:27:37.557Z,959.58
2023-02-22T01:28:37.326Z,959.53
2023-02-22T01:29:37.392Z,959.57
2023-02-22T01:30:37.509Z,959.53
2023-02-22T01:33:37.482Z,959.52
2023-02-22T01:34:37.451Z,959.51
2023-02-22T01:36:37.487Z,959.49
2023-02-22T01:37:37.422Z,959.47
2023-02-22T01:38:37.423Z,959.44
2023-02-22T01:39:37.473Z,959.47
2023-02-22T01:40:37.448Z,959.43
2023-02-22T01:41:37.325Z,959.46
2023-02-22T01:42:37.499Z,959.4
2023-02-22T01:43:37.349Z,959.39
2023-02-22T01:44:37.514Z,959.41
2023-02-22T01:45:37.485Z,959.44
2023-02-22T01:46:37.454Z,959.42
2023-02-22T01:47:37.430Z,959.41
2023-02-22T01:48:37.379Z,959.39
2023-02-22T01:49:37.462Z,959.42
2023-02-22T01:50:37.339Z,959.39
2023-02-22T01:51:37.377Z,959.4
2023-02-22T01:52:37.427Z,959.37
2023-02-22T01:53:37.362Z,959.38
2023-02-22T01:55:37.430Z,959.39
2023-02-22T01:56:37.598Z,959.42
2023-02-22T01:57:37.494Z,959.37
2023-02-22T01:59:37.524Z,959.36
2023-02-22T02:00:37.387Z,959.37
2023-02-22T02:01:37.486Z,959.36
2023-02-22T02:02:37.542Z,959.35
2023-02-22T02:03:37.439Z,959.36
2023-02-22T02:04:37.521Z,959.34
2023-02-22T02:05:37.454Z,959.37
2023-02-22T02:06:37.516Z,959.36
2023-02-22T02:07:37.489Z,959.37
2023-02-22T02:08:37.591Z,959.34
2023-02-22T02:09:37.452Z,959.37
2023-02-22T02:10:37.496Z,959.36
2023-02-22T02:12:37.461Z,959.38
2023-02-22T02:13:37.478Z,959.41
2023-02-22T02:14:37.564Z,959.37
2023-02-22T02:15:37.515Z,959.33
2023-02-22T02:16:37.477Z,959.32
2023-02-22T02:18:37.573Z,959.29
2023-02-22T02:19:37.464Z,959.33
2023-02-22T02:20:37.437Z,959.36
2023-02-22T02:21:37.529Z,959.35
2023-02-22T02:22:37.513Z,959.36
2023-02-22T02:23:37.460Z,959.32
2023-02-22T02:24:37.551Z,959.33
2023-02-22T02:26:37.630Z,959.29
2023-02-22T02:27:37.556Z,959.27
2023-02-22T02:28:37.452Z,959.3
2023-02-22T02:29:37.447Z,959.25
2023-02-22T02:30:37.606Z,959.21
2023-02-22T02:31:37.634Z,959.24
2023-02-22T02:32:37.657Z,959.25
2023-02-22T02:33:37.460Z,959.24
2023-02-22T02:34:37.466Z,959.27
2023-02-22T02:35:37.463Z,959.23
2023-02-22T02:36:37.550Z,959.24
2023-02-22T02:37:37.510Z,959.23
2023-02-22T02:39:37.582Z,959.24
2023-02-22T02:40:37.573Z,959.19
2023-02-22T02:41:37.582Z,959.22
2023-02-22T02:42:37.545Z,959.17
2023-02-22T02:43:37.619Z,959.18
2023-02-22T02:44:37.478Z,959.16
2023-02-22T02:45:37.558Z,959.19
2023-02-22T02:46:37.622Z,959.15
2023-02-22T02:47:37.510Z,959.14
2023-02-22T02:48:37.546Z,959.15
2023-02-22T02:49:37.624Z,959.14
2023-02-22T02:50:37.589Z,959.15
2023-02-22T02:51:37.550Z,959.12
2023-02-22T02:52:37.633Z,959.11
2023-02-22T02:53:37.540Z,959.16
2023-02-22T02:54:37.565Z,959.12
2023-02-22T02:55:37.636Z,959.1
2023-02-22T02:56:37.504Z,959.06
2023-02-22T02:57:37.509Z,959.1
2023-02-22T02:58:37.545Z,959.07
2023-02-22T02:59:37.611Z,959.08
2023-02-22T03:00:37.584Z,959.04
2023-02-22T03:01:37.570Z,959.01
2023-02-22T03:02:37.609Z,959
2023-02-22T03:04:37.800Z,959.01
2023-02-22T03:05:37.557Z,958.99
2023-02-22T03:06:37.590Z,958.97
2023-02-22T03:07:37.562Z,958.99
2023-02-22T03:08:37.635Z,958.98
2023-02-22T03:09:37.587Z,959
2023-02-22T03:10:37.525Z,958.97
2023-02-22T03:11:37.624Z,958.98
2023-02-22T03:12:39.254Z,958.91
2023-02-22T03:13:37.658Z,958.95
2023-02-22T03:14:37.634Z,958.96
2023-02-22T03:16:37.638Z,958.95
2023-02-22T03:17:37.558Z,958.93
2023-02-22T03:18:37.702Z,958.97
2023-02-22T03:19:37.664Z,958.9
2023-02-22T03:20:37.654Z,958.92
2023-02-22T03:21:37.557Z,958.93
2023-02-22T03:22:37.688Z,958.96
2023-02-22T03:23:37.639Z,958.92
2023-02-22T03:24:37.567Z,958.94
2023-02-22T03:25:37.677Z,958.93
2023-02-22T03:26:37.638Z,958.98
2023-02-22T03:27:37.717Z,958.97
2023-02-22T03:28:37.686Z,958.95
2023-02-22T03:29:37.571Z,958.97
2023-02-22T03:30:37.682Z,958.98
2023-02-22T03:31:37.678Z,958.96
2023-02-22T03:32:37.592Z,958.95
2023-02-22T03:33:37.722Z,958.93
2023-02-22T03:34:37.597Z,958.92
2023-02-22T03:35:37.664Z,958.9
2023-02-22T03:36:37.651Z,958.93
2023-02-22T03:37:37.700Z,958.9
2023-02-22T03:38:37.758Z,958.95
2023-02-22T03:39:37.601Z,958.93
2023-02-22T03:40:37.699Z,958.94
2023-02-22T03:41:37.661Z,958.87
2023-02-22T03:42:37.606Z,958.88
2023-02-22T03:43:37.705Z,958.87
2023-02-22T03:45:37.786Z,958.89
2023-02-22T03:46:37.775Z,958.85
2023-02-22T03:47:37.815Z,958.86
2023-02-22T03:48:37.747Z,958.83
2023-02-22T03:49:37.707Z,958.87
2023-02-22T03:50:37.711Z,958.86
2023-02-22T03:51:37.759Z,958.87
2023-02-22T03:52:37.632Z,958.9
2023-02-22T03:53:37.668Z,958.88
2023-02-22T03:55:37.721Z,958.91
2023-02-22T03:56:37.706Z,958.89
2023-02-22T03:57:37.756Z,958.87
2023-02-22T03:58:37.729Z,958.9
2023-02-22T03:59:37.799Z,958.88
2023-02-22T04:00:37.652Z,958.9
2023-02-22T04:01:37.644Z,958.91
2023-02-22T04:02:37.924Z,958.88
2023-02-22T04:03:37.749Z,958.89
2023-02-22T04:05:37.803Z,958.88
2023-02-22T04:06:37.774Z,958.89
2023-02-22T04:07:37.726Z,958.91
2023-02-22T04:09:37.823Z,958.9
2023-02-22T04:10:37.767Z,958.87
2023-02-22T04:13:37.846Z,958.88
2023-02-22T04:14:37.734Z,958.89
2023-02-22T04:15:37.802Z,958.87
2023-02-22T04:17:37.876Z,958.89
2023-02-22T04:19:37.880Z,958.9
2023-02-22T04:20:37.822Z,958.89
2023-02-22T04:22:37.707Z,958.91
2023-02-22T04:23:37.706Z,958.88
2023-02-22T04:24:37.792Z,958.89
2023-02-22T04:25:37.859Z,958.9
2023-02-22T04:26:37.840Z,958.87
2023-02-22T04:27:37.801Z,958.89
2023-02-22T04:28:37.709Z,958.86
2023-02-22T04:30:37.792Z,958.84
2023-02-22T04:32:37.805Z,958.85
2023-02-22T04:33:37.806Z,958.86
2023-02-22T04:34:37.866Z,958.81
2023-02-22T04:38:37.946Z,958.8
2023-02-22T04:39:37.826Z,958.82
2023-02-22T04:41:37.899Z,958.81
2023-02-22T04:42:37.817Z,958.82
2023-02-22T04:43:37.877Z,958.81
2023-02-22T04:44:37.848Z,958.82
2023-02-22T04:45:37.812Z,958.8
2023-02-22T04:46:37.781Z,958.78
2023-02-22T04:47:37.849Z,958.83
2023-02-22T04:48:37.776Z,958.82
2023-02-22T04:49:39.055Z,958.84
2023-02-22T04:50:37.763Z,958.81
2023-02-22T04:51:37.813Z,958.87
2023-02-22T04:52:37.799Z,958.85
2023-02-22T04:54:37.775Z,958.87
2023-02-22T04:55:37.794Z,958.84
2023-02-22T04:56:37.877Z,958.81
2023-02-22T04:57:37.789Z,958.88
2023-02-22T04:59:37.980Z,958.85
2023-02-22T05:00:37.805Z,958.87
2023-02-22T05:01:37.935Z,958.82
2023-02-22T05:02:38.041Z,958.83
2023-02-22T05:03:37.935Z,958.86
2023-02-22T05:04:38.013Z,958.84
2023-02-22T05:05:37.872Z,958.83
2023-02-22T05:06:37.798Z,958.84
2023-02-22T05:08:37.951Z,958.87
2023-02-22T05:09:38.007Z,958.85
2023-02-22T05:11:37.824Z,958.87
2023-02-22T05:12:37.947Z,958.82
2023-02-22T05:13:37.816Z,958.85
2023-02-22T05:14:37.824Z,958.83
2023-02-22T05:15:37.835Z,958.84
2023-02-22T05:18:38.059Z,958.83
2023-02-22T05:19:37.845Z,958.82
2023-02-22T05:20:38.003Z,958.8
2023-02-22T05:21:37.973Z,958.83
2023-02-22T05:24:37.951Z,958.81
2023-02-22T05:25:37.868Z,958.82
2023-02-22T05:26:37.936Z,958.83
2023-02-22T05:27:37.838Z,958.8
2023-02-22T05:28:37.941Z,958.78
2023-02-22T05:31:38.074Z,958.8
2023-02-22T05:32:38.030Z,958.75
2023-02-22T05:33:37.992Z,958.78
2023-02-22T05:34:37.959Z,958.8
2023-02-22T05:35:38.029Z,958.77
2023-02-22T05:36:37.984Z,958.79
2023-02-22T05:37:37.863Z,958.81
2023-02-22T05:38:38.024Z,958.76
2023-02-22T05:39:37.991Z,958.78
2023-02-22T05:40:37.956Z,958.79
2023-02-22T05:41:37.885Z,958.77
2023-02-22T05:44:38.139Z,958.76
2023-02-22T05:45:38.019Z,958.73
2023-02-22T05:46:38.031Z,958.76
2023-02-22T05:48:38.008Z,958.74
2023-02-22T05:49:38.076Z,958.71
2023-02-22T05:50:38.032Z,958.73
2023-02-22T05:51:38.008Z,958.74
2023-02-22T05:52:37.908Z,958.78
2023-02-22T05:53:37.944Z,958.8
2023-02-22T05:54:37.904Z,958.75
2023-02-22T05:55:38.074Z,958.74
2023-02-22T05:56:37.933Z,958.77
2023-02-22T05:57:37.956Z,958.78
2023-02-22T05:58:37.912Z,958.77
2023-02-22T06:00:38.018Z,958.78
2023-02-22T06:03:38.156Z,958.77
2023-02-22T06:04:38.096Z,958.79
2023-02-22T06:05:38.123Z,958.77
2023-02-22T06:06:38.017Z,958.79
2023-02-22T06:08:38.033Z,958.75
2023-02-22T06:09:38.043Z,958.78
2023-02-22T06:10:39.267Z,958.81
2023-02-22T06:11:37.949Z,958.77
2023-02-22T06:12:37.951Z,958.8
2023-02-22T06:13:37.956Z,958.79
2023-02-22T06:14:38.055Z,958.76
2023-02-22T06:16:37.945Z,958.81
2023-02-22T06:17:38.064Z,958.78
2023-02-22T06:18:38.050Z,958.81
2023-02-22T06:19:38.113Z,958.82
2023-02-22T06:20:37.973Z,958.78
2023-02-22T06:22:38.115Z,958.76
2023-02-22T06:23:37.976Z,958.8
2023-02-22T06:24:38.148Z,958.78
2023-02-22T06:25:38.056Z,958.8
2023-02-22T06:27:37.996Z,958.79
2023-02-22T06:29:38.143Z,958.78
2023-02-22T06:30:38.053Z,958.83
2023-02-22T06:31:38.215Z,958.81
2023-02-22T06:32:38.080Z,958.8
2023-02-22T06:33:38.057Z,958.78
2023-02-22T06:34:38.148Z,958.79
2023-02-22T06:35:38.100Z,958.82
2023-02-22T06:36:38.153Z,958.77
2023-02-22T06:37:38.153Z,958.81
2023-02-22T06:38:38.103Z,958.83
2023-02-22T06:39:38.024Z,958.85
2023-02-22T06:40:38.496Z,958.83
2023-02-22T06:41:38.097Z,958.84
2023-02-22T06:42:38.110Z,958.8
2023-02-22T06:43:38.152Z,958.85
2023-02-22T06:44:38.098Z,958.82
2023-02-22T06:45:38.268Z,958.84
2023-02-22T06:46:38.172Z,958.85
2023-02-22T06:48:38.085Z,958.82
2023-02-22T06:50:38.163Z,958.8
2023-02-22T06:51:38.033Z,958.86
2023-02-22T06:53:38.202Z,958.88
2023-02-22T06:54:38.201Z,958.92
2023-02-22T06:55:38.054Z,958.89
2023-02-22T06:56:38.122Z,958.93
2023-02-22T06:57:38.059Z,958.97
2023-02-22T06:58:38.054Z,958.98
2023-02-22T06:59:38.247Z,959.01
2023-02-22T07:00:38.059Z,958.98
2023-02-22T07:01:38.083Z,959.01
2023-02-22T07:02:38.240Z,959.02
2023-02-22T07:03:38.150Z,959.03
2023-02-22T07:04:38.070Z,958.97
2023-02-22T07:05:38.270Z,958.99
2023-02-22T07:06:38.110Z,958.98
2023-02-22T07:07:38.176Z,958.97
2023-02-22T07:08:38.080Z,959
2023-02-22T07:09:38.113Z,958.96
2023-02-22T07:11:38.370Z,959.01
2023-02-22T07:12:38.250Z,959
2023-02-22T07:13:38.248Z,959.01
2023-02-22T07:14:38.312Z,959.03
2023-02-22T07:15:38.233Z,959.04
2023-02-22T07:16:38.210Z,959.03
2023-02-22T07:19:38.295Z,959.06
2023-02-22T07:20:38.173Z,959.05
2023-02-22T07:21:38.233Z,959.06
2023-02-22T07:22:38.197Z,959.05
2023-02-22T07:23:38.298Z,959.04
2023-02-22T07:24:38.231Z,959.07
2023-02-22T07:27:38.303Z,959.05
2023-02-22T07:29:38.206Z,959.03
2023-02-22T07:30:38.186Z,959.06
2023-02-22T07:31:38.212Z,959.04
2023-02-22T07:34:38.228Z,959.03
2023-02-22T07:35:38.173Z,959.02
2023-02-22T07:36:38.245Z,959.05
2023-02-22T07:38:38.288Z,959.04
2023-02-22T07:39:38.180Z,959.08
2023-02-22T07:40:38.226Z,959.04
2023-02-22T07:41:38.178Z,959.05
2023-02-22T07:42:38.251Z,959.02
2023-02-22T07:43:38.169Z,959.01
2023-02-22T07:45:38.283Z,959.03
2023-02-22T07:47:38.359Z,959.05
2023-02-22T07:48:38.287Z,959.02
2023-02-22T07:49:38.207Z,959.01
2023-02-22T07:50:38.299Z,959.02
2023-02-22T07:52:38.239Z,959.09
2023-02-22T07:53:38.305Z,959.07
2023-02-22T07:54:38.271Z,959.14
2023-02-22T07:55:38.260Z,959.19
2023-02-22T07:56:38.222Z,959.23
2023-02-22T07:57:38.204Z,959.25
2023-02-22T07:58:39.258Z,959.17
2023-02-22T07:59:38.217Z,959.12
2023-02-22T08:00:38.214Z,959.1
2023-02-22T08:01:38.356Z,959.09
2023-02-22T08:02:38.309Z,959.08
2023-02-22T08:03:38.406Z,959.05
2023-02-22T08:04:38.238Z,959.03
2023-02-22T08:05:38.341Z,959.05
2023-02-22T08:06:38.224Z,959.06
2023-02-22T08:07:38.352Z,959.07
2023-02-22T08:08:38.236Z,959.11
2023-02-22T08:09:38.228Z,959.15
2023-02-22T08:10:38.241Z,959.16
2023-02-22T08:11:38.221Z,959.2
2023-02-22T08:12:38.392Z,959.21
2023-02-22T08:13:38.246Z,959.25
2023-02-22T08:14:38.332Z,959.21
2023-02-22T08:16:38.360Z,959.19
2023-02-22T08:17:38.347Z,959.16
2023-02-22T08:18:38.240Z,959.13
2023-02-22T08:19:38.366Z,959.1
2023-02-22T08:20:38.337Z,959.13
2023-02-22T08:21:38.413Z,959.19
2023-02-22T08:22:38.375Z,959.18
2023-02-22T08:23:38.365Z,959.12
2023-02-22T08:24:38.282Z,959.14
2023-02-22T08:25:38.269Z,959.19
2023-02-22T08:26:38.356Z,959.28
2023-02-22T08:27:38.280Z,959.24
2023-02-22T08:28:38.393Z,959.29
2023-02-22T08:29:38.342Z,959.25
2023-02-22T08:30:40.339Z,959.17
2023-02-22T08:31:38.690Z,959.21
2023-02-22T08:32:38.463Z,959.19
2023-02-22T08:33:38.312Z,959.27
2023-02-22T08:34:38.278Z,959.31
2023-02-22T08:35:38.349Z,959.33
2023-02-22T08:36:38.334Z,959.35
2023-02-22T08:37:38.290Z,959.39
2023-02-22T08:38:38.374Z,959.4
2023-02-22T08:39:38.331Z,959.31
2023-02-22T08:40:38.391Z,959.29
2023-02-22T08:41:38.302Z,959.28
2023-02-22T08:42:38.429Z,959.26
2023-02-22T08:43:38.397Z,959.27
2023-02-22T08:44:38.330Z,959.28
2023-02-22T08:45:38.355Z,959.27
2023-02-22T08:47:38.468Z,959.23
2023-02-22T08:48:38.323Z,959.27
2023-02-22T08:49:38.404Z,959.26
2023-02-22T08:50:38.384Z,959.2
2023-02-22T08:51:38.443Z,959.22
2023-02-22T08:52:38.413Z,959.13
2023-02-22T08:53:38.371Z,959.12
2023-02-22T08:54:38.329Z,959.11
2023-02-22T08:55:38.411Z,959.08
2023-02-22T08:56:38.378Z,959.13
2023-02-22T08:57:38.515Z,959.12
2023-02-22T08:58:38.435Z,959.09
2023-02-22T08:59:38.354Z,959.15
2023-02-22T09:00:38.455Z,959.19
2023-02-22T09:01:38.746Z,959.21
2023-02-22T09:02:38.481Z,959.23
2023-02-22T09:03:38.387Z,959.25
2023-02-22T09:04:38.419Z,959.24
2023-02-22T09:05:38.412Z,959.18
2023-02-22T09:06:38.460Z,959.11
2023-02-22T09:07:38.419Z,959.13
2023-02-22T09:08:38.362Z,959.1
2023-02-22T09:09:38.454Z,959.07
2023-02-22T09:10:38.370Z,959.11
2023-02-22T09:11:38.541Z,959.06
2023-02-22T09:12:38.457Z,959.07
2023-02-22T09:14:38.500Z,959.12
2023-02-22T09:15:38.484Z,959.17
2023-02-22T09:16:38.573Z,959.11
2023-02-22T09:17:38.516Z,959.1
2023-02-22T09:18:43.923Z,959.09
2023-02-22T09:19:38.369Z,959.06
2023-02-22T09:20:38.405Z,959.09
2023-02-22T09:22:38.469Z,959.03
2023-02-22T09:24:38.399Z,959.03
2023-02-22T09:25:38.559Z,959
2023-02-22T09:26:38.412Z,959.02
2023-02-22T09:28:38.569Z,959
2023-02-22T09:29:38.527Z,959.03
2023-02-22T09:30:38.535Z,958.99
2023-02-22T09:31:38.564Z,959.01
2023-02-22T09:32:38.634Z,958.98
2023-02-22T09:33:38.501Z,958.9
2023-02-22T09:34:38.478Z,958.93
2023-02-22T09:35:38.535Z,958.91
2023-02-22T09:36:38.592Z,958.89
2023-02-22T09:37:38.567Z,958.85
2023-02-22T09:39:38.596Z,958.87
2023-02-22T09:40:38.431Z,958.86
2023-02-22T09:41:38.438Z,958.85
2023-02-22T09:42:38.510Z,958.88
2023-02-22T09:43:38.435Z,958.86
2023-02-22T09:44:38.547Z,958.84
2023-02-22T09:45:38.538Z,958.83
2023-02-22T09:46:38.500Z,958.86
2023-02-22T09:47:38.570Z,958.88
2023-02-22T09:49:38.591Z,958.89
2023-02-22T09:50:38.548Z,958.83
2023-02-22T09:51:38.522Z,958.84
2023-02-22T09:52:38.470Z,958.85
2023-02-22T09:54:38.677Z,958.84
2023-02-22T09:55:38.611Z,958.81
2023-02-22T09:56:38.578Z,958.82
2023-02-22T09:59:38.618Z,958.75
2023-02-22T10:00:38.655Z,958.76
2023-02-22T10:01:38.603Z,958.71
2023-02-22T10:02:38.568Z,958.68
2023-02-22T10:03:38.651Z,958.67
2023-02-22T10:04:38.611Z,958.72
2023-02-22T10:05:38.570Z,958.67
2023-02-22T10:06:38.559Z,958.66
2023-02-22T10:07:38.654Z,958.65
2023-02-22T10:08:38.580Z,958.71
2023-02-22T10:10:38.625Z,958.66
2023-02-22T10:11:38.587Z,958.67
2023-02-22T10:12:38.532Z,958.65
2023-02-22T10:13:38.641Z,958.64
2023-02-22T10:15:38.553Z,958.65
2023-02-22T10:16:38.665Z,958.66
2023-02-22T10:17:38.594Z,958.62
2023-02-22T10:18:38.554Z,958.64
2023-02-22T10:19:38.625Z,958.66
2023-02-22T10:20:38.561Z,958.69
2023-02-22T10:21:38.529Z,958.68
2023-02-22T10:22:38.636Z,958.69
2023-02-22T10:23:38.554Z,958.68
2023-02-22T10:24:38.690Z,958.71
2023-02-22T10:25:38.546Z,958.69
2023-02-22T10:26:38.554Z,958.68
2023-02-22T10:28:38.707Z,958.7
2023-02-22T10:29:38.625Z,958.66
2023-02-22T10:30:38.820Z,958.68
2023-02-22T10:31:38.681Z,958.64
2023-02-22T10:33:38.698Z,958.65
2023-02-22T10:34:38.650Z,958.63
2023-02-22T10:36:38.742Z,958.56
2023-02-22T10:37:38.724Z,958.58
2023-02-22T10:38:38.617Z,958.55
2023-02-22T10:39:38.706Z,958.56
2023-02-22T10:40:38.596Z,958.53
2023-02-22T10:41:38.622Z,958.52
2023-02-22T10:43:38.606Z,958.57
2023-02-22T10:44:38.609Z,958.6
2023-02-22T10:45:38.717Z,958.62
2023-02-22T10:46:38.668Z,958.6
2023-02-22T10:47:38.748Z,958.61
2023-02-22T10:48:38.713Z,958.6
2023-02-22T10:49:38.674Z,958.55
2023-02-22T10:50:38.756Z,958.62
2023-02-22T10:51:38.719Z,958.57
2023-02-22T10:52:38.775Z,958.6
2023-02-22T10:53:38.631Z,958.61
2023-02-22T10:54:38.710Z,958.59
2023-02-22T10:55:38.701Z,958.58
2023-02-22T10:56:38.628Z,958.54
2023-02-22T10:57:38.710Z,958.59
2023-02-22T10:58:38.683Z,958.54
2023-02-22T10:59:38.747Z,958.58
2023-02-22T11:00:38.638Z,958.59
2023-02-22T11:03:38.779Z,958.57
2023-02-22T11:04:38.773Z,958.58
2023-02-22T11:05:38.767Z,958.55
2023-02-22T11:06:38.648Z,958.54
2023-02-22T11:07:38.654Z,958.53
2023-02-22T11:08:38.776Z,958.46
2023-02-22T11:09:38.759Z,958.44
2023-02-22T11:10:38.805Z,958.4
2023-02-22T11:11:38.771Z,958.36
2023-02-22T11:14:38.908Z,958.37
2023-02-22T11:15:38.684Z,958.41
2023-02-22T11:16:38.756Z,958.39
2023-02-22T11:17:38.782Z,958.33
2023-02-22T11:18:38.792Z,958.28
2023-02-22T11:19:38.708Z,958.24
2023-02-22T11:21:38.737Z,958.22
2023-02-22T11:22:38.822Z,958.26
2023-02-22T11:24:48.637Z,958.23
2023-02-22T11:27:38.835Z,958.22
2023-02-22T11:28:38.844Z,958.17
2023-02-22T11:30:38.979Z,958.22
2023-02-22T11:31:38.928Z,958.23
2023-02-22T11:33:38.725Z,958.21
2023-02-22T11:34:38.873Z,958.14
2023-02-22T11:35:38.964Z,958.11
2023-02-22T11:37:38.821Z,958.08
2023-02-22T11:39:38.971Z,958.07
2023-02-22T11:40:38.846Z,958.06
2023-02-22T11:41:38.812Z,958.09
2023-02-22T11:42:38.770Z,958.08
2023-02-22T11:43:38.748Z,958.07
2023-02-22T11:44:38.819Z,958.04
2023-02-22T11:45:44.118Z,958.02
2023-02-22T11:46:38.893Z,958.06
2023-02-22T11:47:38.822Z,958.03
2023-02-22T11:48:38.776Z,958.02
2023-02-22T11:50:38.848Z,957.97
2023-02-22T11:51:38.783Z,957.96
2023-02-22T11:52:38.863Z,957.93
2023-02-22T11:53:38.754Z,957.92
2023-02-22T11:54:38.799Z,957.9
2023-02-22T11:55:42.966Z,957.91
2023-02-22T11:56:39.090Z,957.93
2023-02-22T11:57:38.776Z,957.91
2023-02-22T11:58:38.860Z,957.87
2023-02-22T11:59:38.757Z,957.91
2023-02-22T12:00:38.893Z,957.86
2023-02-22T12:01:38.859Z,957.82
2023-02-22T12:02:41.623Z,957.8
2023-02-22T12:03:39.172Z,957.75
2023-02-22T12:04:39.328Z,957.73
2023-02-22T12:06:38.790Z,957.69
2023-02-22T12:07:38.796Z,957.7
2023-02-22T12:08:38.951Z,957.73
2023-02-22T12:09:38.795Z,957.7
2023-02-22T12:10:38.872Z,957.71
2023-02-22T12:11:38.853Z,957.68
2023-02-22T12:12:38.928Z,957.7
2023-02-22T12:13:38.798Z,957.69
2023-02-22T12:14:38.801Z,957.64
2023-02-22T12:17:39.097Z,957.65
2023-02-22T12:18:39.276Z,957.62
2023-02-22T12:19:38.901Z,957.61
2023-02-22T12:21:38.963Z,957.56
2023-02-22T12:22:38.917Z,957.57
2023-02-22T12:23:38.852Z,957.53
2023-02-22T12:24:38.933Z,957.54
2023-02-22T12:25:39.042Z,957.53
2023-02-22T12:26:38.876Z,957.57
2023-02-22T12:27:38.833Z,957.6
2023-02-22T12:28:38.907Z,957.62
2023-02-22T12:29:38.850Z,957.59
2023-02-22T12:30:38.984Z,957.66
2023-02-22T12:31:38.996Z,957.64
2023-02-22T12:32:38.937Z,957.57
2023-02-22T12:33:39.027Z,957.6
2023-02-22T12:34:38.888Z,957.58
2023-02-22T12:35:38.919Z,957.59
2023-02-22T12:36:38.868Z,957.58
2023-02-22T12:39:52.052Z,957.55
2023-02-22T12:40:38.945Z,957.58
2023-02-22T12:42:38.885Z,957.48
2023-02-22T12:43:38.895Z,957.5
2023-02-22T12:44:38.990Z,957.48
2023-02-22T12:46:38.999Z,957.47
2023-02-22T12:48:38.913Z,957.41
2023-02-22T12:49:38.960Z,957.39
2023-02-22T12:50:39.019Z,957.37
2023-02-22T12:51:38.996Z,957.4
2023-02-22T12:52:38.896Z,957.38
2023-02-22T12:53:38.916Z,957.42
2023-02-22T12:54:38.917Z,957.46
2023-02-22T12:55:39.094Z,957.47
2023-02-22T12:56:39.008Z,957.5
2023-02-22T12:57:38.927Z,957.47
2023-02-22T12:58:38.942Z,957.52
2023-02-22T12:59:39.021Z,957.5
2023-02-22T13:00:38.994Z,957.54
2023-02-22T13:01:39.043Z,957.56
2023-02-22T13:02:39.029Z,957.5
2023-02-22T13:03:39.046Z,957.53
2023-02-22T13:04:39.054Z,957.51
2023-02-22T13:05:38.965Z,957.52
2023-02-22T13:07:39.031Z,957.45
2023-02-22T13:08:38.972Z,957.46
2023-02-22T13:09:38.965Z,957.42
2023-02-22T13:10:39.078Z,957.4
2023-02-22T13:12:39.133Z,957.37
2023-02-22T13:13:39.002Z,957.38
2023-02-22T13:14:38.951Z,957.45
2023-02-22T13:15:39.092Z,957.43
2023-02-22T13:16:38.998Z,957.4
2023-02-22T13:17:38.966Z,957.43
2023-02-22T13:18:39.109Z,957.38
2023-02-22T13:19:39.088Z,957.41
2023-02-22T13:20:39.048Z,957.39
2023-02-22T13:21:39.043Z,957.37
2023-02-22T13:23:39.107Z,957.34
2023-02-22T13:24:41.407Z,957.31
2023-02-22T13:25:39.095Z,957.32
2023-02-22T13:27:39.093Z,957.31
2023-02-22T13:28:39.005Z,957.29
2023-02-22T13:29:39.002Z,957.3
2023-02-22T13:30:39.087Z,957.29
2023-02-22T13:31:40.972Z,957.24
2023-02-22T13:32:39.143Z,957.26
2023-02-22T13:33:39.054Z,957.28
2023-02-22T13:34:39.123Z,957.29
2023-02-22T13:35:39.082Z,957.28
2023-02-22T13:36:39.027Z,957.35
2023-02-22T13:38:39.160Z,957.39
2023-02-22T13:39:39.146Z,957.4
2023-02-22T13:40:39.136Z,957.43
2023-02-22T13:41:39.020Z,957.45
2023-02-22T13:42:39.142Z,957.41
2023-02-22T13:43:39.131Z,957.4
2023-02-22T13:44:39.072Z,957.37
2023-02-22T13:45:39.037Z,957.34
2023-02-22T13:47:39.118Z,957.35
2023-02-22T13:48:39.059Z,957.33
2023-02-22T13:49:39.120Z,957.3
2023-02-22T13:50:39.238Z,957.26
2023-02-22T13:51:39.051Z,957.25
2023-02-22T13:53:39.092Z,957.27
2023-02-22T13:54:39.055Z,957.23
2023-02-22T13:55:39.054Z,957.21
2023-02-22T13:56:39.099Z,957.24
2023-02-22T13:57:39.169Z,957.2
2023-02-22T13:58:39.163Z,957.24
2023-02-22T13:59:39.203Z,957.23
2023-02-22T14:00:39.157Z,957.28
2023-02-22T14:01:39.353Z,957.25
2023-02-22T14:02:39.094Z,957.18
2023-02-22T14:03:39.171Z,957.25
2023-02-22T14:04:39.100Z,957.2
2023-02-22T14:05:39.130Z,957.18
2023-02-22T14:06:39.088Z,957.2
2023-02-22T14:07:39.133Z,957.15
2023-02-22T14:08:40.152Z,957.17
2023-02-22T14:09:39.182Z,957.21
2023-02-22T14:10:39.139Z,957.13
2023-02-22T14:12:39.152Z,957.12
2023-02-22T14:13:39.164Z,957.15
2023-02-22T14:15:39.116Z,957.16
2023-02-22T14:16:39.182Z,957.22
2023-02-22T14:18:39.260Z,957.21
2023-02-22T14:20:40.313Z,957.15
2023-02-22T14:21:39.125Z,957.14
2023-02-22T14:22:39.198Z,957.23
2023-02-22T14:23:39.258Z,957.22
2023-02-22T14:24:39.122Z,957.16
2023-02-22T14:25:39.279Z,957.22
2023-02-22T14:26:39.261Z,957.19
2023-02-22T14:27:39.214Z,957.17
2023-02-22T14:28:39.174Z,957.19
2023-02-22T14:29:39.140Z,957.14
2023-02-22T14:30:39.229Z,957.05
2023-02-22T14:31:39.352Z,957.09
2023-02-22T14:32:39.355Z,957.08
2023-02-22T14:33:41.234Z,957.1
2023-02-22T14:34:39.299Z,957.12
2023-02-22T14:35:49.350Z,957.17
2023-02-22T14:36:39.221Z,957.16
2023-02-22T14:37:39.200Z,957.17